Time;durP1;ratioP1;P1;durP2;ratioP2;P2;SDS_P1;SDS_P2;PMS_P1;PMS_P2;Temp;Humidity;BMP_temperature;BMP_pressure;BME280_temperature;BME280_humidity;BME280_pressure;Samples;Min_cycle;Max_cycle;Signal;HPM_P1;HPM_P2
2021/03/09 00:01:14;;;;;;;34.00;17.98;;;;;;;-7.92;81.45;100282.97;1661801;84;21171;-71
2021/03/09 00:03:41;;;;;;;42.17;20.32;;;;;;;-7.97;81.51;100276.45;1650593;85;21147;-72
2021/03/09 00:06:08;;;;;;;44.10;22.05;;;;;;;-7.94;81.63;100275.70;1665370;85;21617;-72
2021/03/09 00:08:36;;;;;;;57.75;25.20;;;;;;;-7.94;81.66;100275.70;1651698;85;21187;-72
2021/03/09 00:11:03;;;;;;;;;;;;;;;-7.89;81.71;100273.79;1653476;86;21736;-71
2021/03/09 00:13:30;;;;;;;;;;;;;;;-7.97;81.29;100275.59;1651848;85;20154;-71
2021/03/09 00:15:57;;;;;;;56.95;23.87;;;;;;;-8.15;81.04;100278.30;1660564;84;27363;-72
2021/03/09 00:18:24;;;;;;;74.50;30.17;;;;;;;-8.33;81.03;100284.42;1647332;85;21289;-72
2021/03/09 00:20:51;;;;;;;62.50;24.90;;;;;;;-8.42;81.39;100287.92;1661517;84;24430;-71
2021/03/09 00:23:19;;;;;;;63.85;26.02;;;;;;;-8.45;81.63;100285.69;1662409;85;21184;-71
2021/03/09 00:25:46;;;;;;;64.90;25.75;;;;;;;-8.47;81.65;100289.41;1661012;85;21228;-72
2021/03/09 00:28:13;;;;;;;73.30;30.68;;;;;;;-8.49;81.66;100287.21;1660000;84;21743;-71
2021/03/09 00:30:40;;;;;;;78.40;29.87;;;;;;;-8.47;81.61;100297.00;1659160;84;21300;-71
2021/03/09 00:33:07;;;;;;;81.60;30.40;;;;;;;-8.52;81.19;100290.89;1661598;84;21056;-71
2021/03/09 00:35:34;;;;;;;46.05;22.67;;;;;;;-8.58;81.37;100293.20;1658669;85;21171;-71
2021/03/09 00:38:01;;;;;;;50.58;23.22;;;;;;;-8.57;81.48;100286.05;1660005;84;21652;-71
2021/03/09 00:40:28;;;;;;;50.33;22.70;;;;;;;-8.55;81.72;100290.78;1658404;85;21216;-72
2021/03/09 00:42:55;;;;;;;43.40;21.15;;;;;;;-8.55;81.60;100295.84;1657418;85;21281;-71
2021/03/09 00:45:23;;;;;;;47.70;25.00;;;;;;;-8.55;81.75;100290.78;1661704;84;21239;-71
2021/03/09 00:47:50;;;;;;;53.15;26.68;;;;;;;-8.55;81.69;100292.05;1642677;85;21070;-71
2021/03/09 00:50:17;;;;;;;73.45;29.92;;;;;;;-8.52;81.77;100290.89;1660916;84;28427;-71
2021/03/09 00:52:44;;;;;;;75.15;31.15;;;;;;;-8.52;81.68;100284.97;1660418;85;21112;-71
2021/03/09 00:55:12;;;;;;;;;;;;;;;-8.52;81.75;100292.57;1662384;85;21629;-72
2021/03/09 00:57:39;;;;;;;77.67;31.55;;;;;;;-8.51;81.80;100286.31;1658091;84;20240;-71
2021/03/09 01:02:57;;;;;;;85.20;34.65;;;;;;;-8.47;81.76;100288.14;1652594;84;21676;-71
2021/03/09 01:05:24;;;;;;;92.02;34.78;;;;;;;-8.45;81.67;100290.34;1650696;85;21210;-71
2021/03/09 01:07:51;;;;;;;78.40;31.73;;;;;;;-8.49;81.47;100291.42;1658943;85;21263;-71
2021/03/09 01:10:21;;;;;;;87.27;32.65;;;;;;;-8.62;81.13;100285.04;1687667;83;20988;-71
2021/03/09 01:12:48;;;;;;;97.25;37.90;;;;;;;-8.71;81.18;100280.86;1688120;83;21636;-71
2021/03/09 01:15:16;;;;;;;103.50;40.00;;;;;;;-8.74;81.39;100280.74;1651591;85;21226;-71
2021/03/09 01:17:43;;;;;;;96.47;38.58;;;;;;;-8.74;81.50;100283.28;1685884;82;21234;-71
2021/03/09 01:20:11;;;;;;;96.02;36.53;;;;;;;-8.73;81.41;100279.55;1657207;84;21304;-71
2021/03/09 01:22:38;;;;;;;100.12;37.85;;;;;;;-8.73;81.38;100274.90;1684348;83;21112;-72
2021/03/09 01:25:07;;;;;;;77.50;34.08;;;;;;;-8.76;81.38;100272.22;1631281;85;23181;-72
2021/03/09 01:27:35;;;;;;;94.80;39.23;;;;;;;-8.66;81.75;100269.25;1685832;83;21734;-71
2021/03/09 01:30:05;;;;;;;94.85;36.17;;;;;;;-8.56;81.87;100266.28;1686678;84;21215;-72
2021/03/09 01:32:32;;;;;;;98.55;40.48;;;;;;;-8.47;81.81;100267.88;1687465;83;21248;-71
2021/03/09 01:35:00;;;;;;;97.27;37.95;;;;;;;-8.44;81.68;100254.06;1687308;82;21182;-71
2021/03/09 01:37:27;;;;;;;92.12;38.80;;;;;;;-8.37;81.67;100262.74;1691367;83;21138;-71
2021/03/09 01:39:54;;;;;;;86.55;38.60;;;;;;;-8.35;81.63;100259.43;1653207;85;21194;-72
2021/03/09 01:42:21;;;;;;;96.92;39.15;;;;;;;-8.29;81.64;100261.73;1687456;83;21198;-72
2021/03/09 01:44:48;;;;;;;86.57;38.85;;;;;;;-8.21;81.86;100261.62;1654085;85;21182;-71
2021/03/09 01:47:18;;;;;;;94.28;36.88;;;;;;;-8.06;82.27;100252.05;1689200;83;21124;-71
2021/03/09 01:49:46;;;;;;;85.25;35.85;;;;;;;-7.91;82.27;100250.05;1683048;83;21172;-72
2021/03/09 01:52:14;;;;;;;95.42;41.18;;;;;;;-7.73;82.44;100244.78;1684146;83;21210;-72
2021/03/09 01:54:41;;;;;;;84.50;37.78;;;;;;;-7.62;82.31;100242.58;1687873;84;21196;-71
2021/03/09 01:57:09;;;;;;;;;;;;;;;-7.51;82.40;100242.95;1688562;83;22173;-72
2021/03/09 01:59:38;;;;;;;53.95;23.60;;;;;;;-7.40;82.42;100241.63;1687462;83;20235;-71
2021/03/09 02:02:05;;;;;;;81.30;32.25;;;;;;;-7.31;82.32;100246.14;1690605;82;21729;-72
2021/03/09 02:04:33;;;;;;;86.42;34.73;;;;;;;-7.33;81.94;100245.26;1675577;84;21215;-71
2021/03/09 02:07:00;;;;;;;52.88;24.32;;;;;;;-7.48;81.61;100242.67;1678398;84;21194;-71
2021/03/09 02:09:27;;;;;;;61.98;27.02;;;;;;;-7.54;81.98;100239.91;1672275;84;21236;-72
2021/03/09 02:11:57;;;;;;;;;;;;;;;-7.57;82.02;100233.46;1655176;85;21098;-72
2021/03/09 02:15:03;;;;;;;44.03;20.75;;;;;;;-7.61;82.14;100234.19;1673410;84;20174;-72
2021/03/09 02:18:11;;;;;;;43.73;22.13;;;;;;;-7.63;82.16;100237.06;1677767;84;21233;-71
2021/03/09 02:21:10;;;;;;;71.87;30.05;;;;;;;-7.67;82.27;100236.52;1676011;84;21129;-70
2021/03/09 02:24:31;;;;;;;60.98;26.45;;;;;;;-7.62;82.23;100245.53;1792895;78;22804;-70
2021/03/09 02:27:18;;;;;;;57.33;25.72;;;;;;;-7.79;82.00;100242.00;1767412;80;21178;-70
2021/03/09 02:30:19;;;;;;;35.25;15.65;;;;;;;-7.92;82.18;100244.53;1768293;80;22088;-71
2021/03/09 02:33:00;;;;;;;58.30;25.97;;;;;;;-7.88;82.68;100250.16;1769041;80;21021;-72
2021/03/09 02:35:29;;;;;;;77.87;30.45;;;;;;;-7.74;82.89;100253.58;1764955;80;20993;-71
2021/03/09 02:38:01;;;;;;;65.40;29.63;;;;;;;-7.69;82.49;100250.81;1761591;80;21066;-72
2021/03/09 02:40:31;;;;;;;61.00;27.25;;;;;;;-7.72;82.17;100250.70;1759717;80;20998;-71
2021/03/09 02:43:03;;;;;;;67.27;27.55;;;;;;;-7.81;81.88;100250.36;1770445;79;21154;-72
2021/03/09 02:45:31;;;;;;;64.77;27.22;;;;;;;-7.91;81.91;100255.13;1765571;80;21049;-71
2021/03/09 02:48:00;;;;;;;65.50;27.37;;;;;;;-7.94;81.93;100249.09;1766949;80;21594;-72
2021/03/09 02:50:29;;;;;;;63.73;28.02;;;;;;;-7.96;81.96;100252.82;1764979;80;21151;-72
2021/03/09 02:53:12;;;;;;;60.63;27.07;;;;;;;-7.99;82.01;100262.85;1771270;80;21171;-71
2021/03/09 02:55:42;;;;;;;63.85;28.55;;;;;;;-7.99;82.08;100252.72;1737420;80;21212;-71
2021/03/09 02:58:14;;;;;;;62.08;27.82;;;;;;;-7.97;82.12;100257.85;1766542;80;21020;-71
2021/03/09 03:00:42;;;;;;;62.55;27.22;;;;;;;-8.02;81.99;100253.87;1765700;80;21077;-71
2021/03/09 03:03:15;;;;;;;58.02;27.87;;;;;;;-8.04;82.02;100255.48;1762651;80;21135;-71
2021/03/09 03:05:43;;;;;;;58.50;25.30;;;;;;;-8.02;82.05;100256.41;1760647;80;21117;-71
2021/03/09 03:08:12;;;;;;;57.75;26.05;;;;;;;-8.00;82.11;100258.60;1764346;78;22160;-71
2021/03/09 03:10:44;;;;;;;51.08;20.80;;;;;;;-8.06;81.98;100262.19;1766927;79;21133;-71
2021/03/09 03:13:14;;;;;;;47.00;20.55;;;;;;;-8.12;81.97;100250.58;1770847;79;20967;-71
2021/03/09 03:15:42;;;;;;;55.05;22.07;;;;;;;-8.18;81.95;100249.91;1775612;80;21214;-71
2021/03/09 03:18:13;;;;;;;60.30;26.10;;;;;;;-8.19;82.21;100251.14;1773726;80;21582;-71
2021/03/09 03:20:45;;;;;;;65.90;27.22;;;;;;;-8.18;82.07;100256.66;1765581;80;21462;-72
2021/03/09 03:23:13;;;;;;;59.38;25.25;;;;;;;-8.30;81.66;100246.09;1741138;80;21026;-71
2021/03/09 03:25:46;;;;;;;61.80;25.65;;;;;;;-8.35;81.96;100258.16;1768214;80;20977;-71
2021/03/09 03:28:14;;;;;;;62.55;25.62;;;;;;;-8.31;81.95;100249.44;1766152;80;21060;-71
2021/03/09 03:31:02;;;;;;;;;;;;;;;-8.45;81.62;100251.09;1766624;80;21181;-71
2021/03/09 03:33:29;;;;;;;51.40;22.75;;;;;;;-8.50;81.81;100252.58;1751006;80;21369;-71
2021/03/09 03:36:06;;;;;;;;;;;;;;;-8.54;81.87;100246.95;1761584;80;21077;-71
2021/03/09 03:38:35;;;;;;;48.60;23.15;;;;;;;-8.64;81.72;100252.45;1757688;80;20160;-71
2021/03/09 03:41:05;;;;;;;52.17;21.85;;;;;;;-8.74;81.81;100251.23;1756406;79;21597;-72
2021/03/09 03:43:34;;;;;;;56.70;24.98;;;;;;;-8.78;81.85;100245.60;1759544;79;21157;-72
2021/03/09 03:46:01;;;;;;;51.63;24.45;;;;;;;-8.70;82.13;100248.44;1757520;80;21203;-72
2021/03/09 03:48:35;;;;;;;48.83;22.50;;;;;;;-8.65;82.12;100248.22;1757545;80;21162;-72
2021/03/09 03:51:08;;;;;;;47.58;22.40;;;;;;;-8.61;82.13;100244.98;1759047;80;20978;-71
2021/03/09 03:54:33;;;;;;;50.52;23.07;;;;;;;-8.64;81.90;100252.45;1757188;80;21203;-72
2021/03/09 03:57:20;;;;;;;58.60;23.60;;;;;;;-8.69;81.71;100243.82;1590033;88;21164;-70
2021/03/09 04:00:05;;;;;;;57.43;24.15;;;;;;;-8.73;81.83;100242.84;1843827;76;22749;-69
2021/03/09 04:02:34;;;;;;;57.80;25.30;;;;;;;-8.76;81.92;100241.84;1816136;77;21074;-69
2021/03/09 04:05:07;;;;;;;66.72;25.80;;;;;;;-8.71;82.03;100249.22;1779311;77;21416;-69
2021/03/09 04:07:35;;;;;;;55.92;23.02;;;;;;;-8.68;81.96;100250.59;1811326;77;20986;-71
2021/03/09 04:10:05;;;;;;;70.30;28.40;;;;;;;-8.65;82.09;100243.15;1809385;77;20978;-71
2021/03/09 04:12:34;;;;;;;63.75;28.50;;;;;;;-8.64;82.07;100242.33;1822335;77;21141;-71
2021/03/09 04:15:01;;;;;;;61.65;25.70;;;;;;;-8.63;82.13;100242.38;1714868;81;21166;-71
2021/03/09 04:17:29;;;;;;;66.45;26.07;;;;;;;-8.72;81.72;100242.03;1755628;80;21590;-71
2021/03/09 04:19:57;;;;;;;53.48;24.30;;;;;;;-8.86;81.53;100236.44;1754610;80;21720;-71
2021/03/09 04:22:26;;;;;;;55.63;24.57;;;;;;;-8.99;81.48;100244.34;1750745;80;21100;-71
2021/03/09 04:24:56;;;;;;;60.63;26.05;;;;;;;-9.11;81.39;100236.28;1756436;81;21036;-71
2021/03/09 04:27:23;;;;;;;56.60;24.23;;;;;;;-9.22;81.47;100245.97;1756005;80;21147;-71
2021/03/09 04:31:39;;;;;;;68.90;32.83;;;;;;;-9.29;81.58;100238.55;1750495;79;38261;-70
2021/03/09 04:34:08;;;;;;;61.33;30.43;;;;;;;-9.33;81.48;100241.73;1739594;80;21009;-71
2021/03/09 04:36:36;;;;;;;64.87;28.77;;;;;;;-9.29;81.51;100247.39;1739257;81;21843;-71
2021/03/09 04:41:53;;;;;;;54.85;23.12;;;;;;;-9.24;81.65;100237.48;1696463;82;21079;-71
2021/03/09 04:44:20;;;;;;;51.70;23.27;;;;;;;-9.28;81.60;100238.99;1707755;83;21241;-71
2021/03/09 04:46:48;;;;;;;50.60;23.50;;;;;;;-9.30;81.65;100235.56;1706741;83;21599;-72
2021/03/09 04:49:16;;;;;;;52.58;22.30;;;;;;;-9.29;81.76;100237.69;1705273;83;26382;-71
2021/03/09 04:51:43;;;;;;;62.05;24.12;;;;;;;-9.29;81.79;100237.28;1711120;81;21012;-71
2021/03/09 04:54:10;;;;;;;;;;;;;;;-9.31;81.76;100232.95;1729892;81;21004;-71
2021/03/09 04:56:38;;;;;;;60.67;25.25;;;;;;;-9.33;81.80;100232.88;1731586;81;20186;-71
2021/03/09 04:59:05;;;;;;;63.98;27.65;;;;;;;-9.34;81.84;100237.48;1732998;81;21813;-71
2021/03/09 05:01:33;;;;;;;61.60;28.57;;;;;;;-9.42;81.58;100224.93;1735340;81;21648;-71
2021/03/09 05:04:00;;;;;;;59.42;28.47;;;;;;;-9.44;81.70;100229.05;1725609;81;21257;-71
2021/03/09 05:06:27;;;;;;;65.03;29.20;;;;;;;-9.40;81.81;100223.34;1705063;82;21195;-71
2021/03/09 05:08:54;;;;;;;70.12;28.40;;;;;;;-9.35;81.89;100229.45;1705858;82;21651;-71
2021/03/09 05:11:21;;;;;;;75.52;28.60;;;;;;;-9.43;81.59;100230.80;1714416;82;21206;-71
2021/03/09 05:13:48;;;;;;;68.50;26.37;;;;;;;-9.54;81.46;100230.36;1730595;81;21213;-71
2021/03/09 05:16:15;;;;;;;63.35;26.70;;;;;;;-9.61;81.52;100238.88;1732155;81;21760;-71
2021/03/09 05:18:42;;;;;;;61.77;24.37;;;;;;;-9.64;81.65;100236.22;1731503;81;21196;-71
2021/03/09 05:21:09;;;;;;;61.18;24.18;;;;;;;-9.63;81.72;100236.67;1725416;81;21166;-71
2021/03/09 05:23:36;;;;;;;58.28;25.00;;;;;;;-9.67;81.60;100237.36;1730094;81;21542;-71
2021/03/09 05:26:03;;;;;;;56.28;24.92;;;;;;;-9.64;81.80;100238.34;1709431;81;22242;-71
2021/03/09 05:28:30;;;;;;;52.55;23.52;;;;;;;-9.58;81.83;100240.27;1713253;81;21219;-71
2021/03/09 05:30:58;;;;;;;68.50;27.45;;;;;;;-9.53;81.91;100236.27;1724379;81;21590;-71
2021/03/09 05:33:26;;;;;;;52.38;22.05;;;;;;;-9.52;81.60;100240.52;1725272;81;21202;-71
2021/03/09 05:35:53;;;;;;;51.08;22.35;;;;;;;-9.69;81.07;100243.23;1727143;81;21397;-71
2021/03/09 05:38:20;;;;;;;45.65;18.55;;;;;;;-9.92;80.79;100243.89;1729103;81;21202;-71
2021/03/09 05:40:47;;;;;;;45.63;18.32;;;;;;;-10.05;80.97;100241.63;1697853;82;21194;-71
2021/03/09 05:43:16;;;;;;;38.50;17.23;;;;;;;-10.08;81.17;100240.23;1731622;81;21590;-71
2021/03/09 05:45:43;;;;;;;45.20;19.52;;;;;;;-9.98;81.60;100234.39;1731639;81;21620;-71
2021/03/09 05:48:11;;;;;;;;;;;;;;;-9.84;81.80;100236.25;1705570;81;21187;-71
2021/03/09 05:50:37;;;;;;;;;;;;;;;-9.73;81.75;100241.36;1710659;81;21083;-71
2021/03/09 05:53:05;;;;;;;40.60;19.48;;;;;;;-9.61;81.75;100237.61;1706899;81;20284;-71
2021/03/09 05:55:34;;;;;;;31.23;15.50;;;;;;;-9.46;81.88;100234.06;1722936;81;21110;-71
2021/03/09 05:58:22;;;;;;;32.65;16.02;;;;;;;-9.27;81.92;100242.01;1704556;82;21081;-71
2021/03/09 06:00:49;;;;;;;42.13;16.77;;;;;;;-9.13;81.74;100236.61;1640343;84;21691;-70
2021/03/09 06:05:16;;;;;;;43.63;20.68;;;;;;;-9.06;81.28;100236.07;1794084;78;22846;-70
2021/03/09 06:07:43;;;;;;;65.87;29.67;;;;;;;-9.06;81.40;100234.40;1765512;80;21044;-69
2021/03/09 06:10:25;;;;;;;60.78;28.80;;;;;;;-8.88;81.56;100235.91;1770756;78;21215;-70
2021/03/09 06:12:53;;;;;;;49.95;23.47;;;;;;;-8.66;81.61;100233.81;1772041;79;21030;-72
2021/03/09 06:15:20;;;;;;;48.95;23.45;;;;;;;-8.43;81.36;100235.55;1772785;80;21991;-72
2021/03/09 06:17:55;;;;;;;;;;;;;;;-8.19;81.40;100234.67;1773298;80;21057;-72
2021/03/09 06:20:29;;;;;;;68.30;30.57;;;;;;;-7.86;81.51;100236.69;1771950;80;20234;-72
2021/03/09 06:23:02;;;;;;;57.48;27.22;;;;;;;-7.49;81.47;100235.85;1758526;80;21225;-72
2021/03/09 06:25:39;;;;;;;51.90;25.08;;;;;;;-7.08;81.49;100242.70;1769518;78;21155;-71
2021/03/09 06:28:10;;;;;;;55.78;24.77;;;;;;;-6.70;81.10;100245.55;1769545;79;21630;-70
2021/03/09 06:33:32;;;;;;;39.42;20.02;;;;;;;-6.13;80.51;100245.56;1688805;83;21157;-71
2021/03/09 06:36:43;;;;;;;34.70;18.52;;;;;;;-5.84;80.12;100249.27;1689139;83;21237;-71
2021/03/09 06:39:25;;;;;;;39.35;18.92;;;;;;;-5.68;79.86;100247.59;1654290;85;21289;-71
2021/03/09 06:41:59;;;;;;;37.95;19.98;;;;;;;-5.49;79.78;100248.95;1679259;83;21224;-70
2021/03/09 06:44:28;;;;;;;47.80;25.10;;;;;;;-5.34;79.77;100251.43;1680972;83;21171;-70
2021/03/09 06:46:56;;;;;;;45.78;23.38;;;;;;;-5.17;79.82;100259.92;1681959;83;21996;-71
2021/03/09 06:49:24;;;;;;;46.77;23.92;;;;;;;-4.86;79.88;100254.30;1680463;83;21210;-71
2021/03/09 06:51:51;;;;;;;41.77;22.02;;;;;;;-4.47;79.80;100253.91;1682174;83;21194;-70
2021/03/09 06:54:18;;;;;;;41.13;23.57;;;;;;;-4.12;79.52;100252.08;1683803;83;21101;-70
2021/03/09 06:56:47;;;;;;;;;;;;;;;-3.79;79.44;100251.04;1679179;83;21656;-70
2021/03/09 06:59:32;;;;;;;37.65;21.70;;;;;;;-3.56;79.10;100244.66;1681549;83;20295;-70
2021/03/09 07:02:20;;;;;;;35.73;22.87;;;;;;;-3.31;79.42;100243.82;1678591;83;21286;-71
2021/03/09 07:05:08;;;;;;;36.25;22.22;;;;;;;-2.94;79.66;100242.33;1681145;83;21698;-71
2021/03/09 07:07:37;;;;;;;;;;;;;;;-2.38;79.95;100250.78;1682430;83;21251;-71
2021/03/09 07:10:30;;;;;;;50.63;26.62;;;;;;;-1.98;79.25;100246.20;1679237;83;20202;-71
2021/03/09 07:12:58;;;;;;;36.63;23.00;;;;;;;-1.90;78.80;100242.03;1652336;85;21214;-70
2021/03/09 07:15:27;;;;;;;36.68;23.30;;;;;;;-1.93;78.67;100244.52;1672935;84;21291;-70
2021/03/09 07:17:54;;;;;;;51.77;29.05;;;;;;;-1.94;78.69;100247.94;1670829;84;21194;-71
2021/03/09 07:20:23;;;;;;;64.80;39.98;;;;;;;-2.03;78.62;100246.12;1678965;84;21253;-70
2021/03/09 07:22:53;;;;;;;96.63;57.33;;;;;;;-1.98;79.11;100246.20;1684504;82;21270;-70
2021/03/09 07:25:23;;;;;;;144.87;76.15;;;;;;;-1.71;79.54;100243.95;1668232;84;22420;-70
2021/03/09 07:28:03;;;;;;;96.40;50.33;;;;;;;-1.36;80.29;100240.87;1664857;84;21327;-69
2021/03/09 07:30:37;;;;;;;77.67;44.42;;;;;;;-1.19;79.50;100253.84;1622427;86;21261;-70
2021/03/09 07:33:03;;;;;;;100.22;53.52;;;;;;;-1.49;78.79;100251.84;1645606;85;21233;-70
2021/03/09 07:35:31;;;;;;;107.43;59.70;;;;;;;-1.67;78.89;100253.38;1647528;85;21088;-70
2021/03/09 07:38:02;;;;;;;114.08;63.63;;;;;;;-1.66;79.33;100251.23;1666820;84;21187;-70
2021/03/09 07:40:36;;;;;;;118.15;63.58;;;;;;;-1.67;79.89;100261.05;1666069;84;21272;-71
2021/03/09 07:43:04;;;;;;;117.97;61.90;;;;;;;-1.43;80.52;100253.17;1667668;84;21235;-69
2021/03/09 07:45:35;;;;;;;118.15;61.28;;;;;;;-1.47;80.10;100255.28;1664349;84;21199;-69
2021/03/09 07:48:11;;;;;;;104.27;61.60;;;;;;;-1.62;80.00;100257.27;1669797;84;21154;-69
2021/03/09 07:50:41;;;;;;;86.47;50.35;;;;;;;-1.69;80.20;100257.61;1650126;85;21088;-70
2021/03/09 07:53:19;;;;;;;90.30;49.85;;;;;;;-1.75;80.24;100254.98;1673359;83;21615;-70
2021/03/09 07:56:13;;;;;;;104.83;50.50;;;;;;;-1.86;80.12;100256.56;1679841;83;21089;-68
2021/03/09 07:58:44;;;;;;;91.65;50.10;;;;;;;-1.94;80.06;100253.05;1664014;84;21658;-69
2021/03/09 08:04:24;;;;;;;89.87;45.43;;;;;;;-1.86;80.72;100262.54;1601811;87;21210;-70
2021/03/09 08:06:54;;;;;;;119.45;66.82;;;;;;;-1.60;81.29;100261.58;1589616;86;21284;-70
2021/03/09 08:09:35;;;;;;;120.37;64.05;;;;;;;-1.18;81.79;100256.83;1596888;87;21246;-68
2021/03/09 08:12:04;;;;;;;133.00;77.22;;;;;;;-0.90;82.02;100255.35;1597099;88;21376;-70
2021/03/09 08:14:31;;;;;;;111.05;51.92;;;;;;;-0.41;82.73;100251.86;1572813;88;21216;-71
2021/03/09 08:17:02;;;;;;;99.55;54.93;;;;;;;0.09;82.77;100251.24;1599307;88;21189;-71
2021/03/09 08:19:38;;;;;;;107.63;53.25;;;;;;;0.31;81.83;100248.72;1572534;88;21263;-70
2021/03/09 08:22:09;;;;;;;102.12;51.35;;;;;;;0.36;81.42;100245.74;1594653;88;21181;-69
2021/03/09 08:24:48;;;;;;;73.35;38.92;;;;;;;0.54;81.10;100245.80;1599032;87;21249;-69
2021/03/09 08:27:36;;;;;;;64.20;34.05;;;;;;;0.68;80.90;100239.83;1592098;88;22006;-70
2021/03/09 08:30:29;;;;;;;63.87;34.63;;;;;;;0.75;80.58;100242.82;1621665;86;21274;-70
2021/03/09 08:33:25;;;;;;;60.95;35.68;;;;;;;0.66;80.27;100247.09;1687370;83;21307;-70
2021/03/09 08:35:54;;;;;;;62.17;35.45;;;;;;;0.62;80.19;100249.24;1689034;83;21190;-71
2021/03/09 08:38:24;;;;;;;67.60;34.00;;;;;;;0.64;80.40;100239.83;1689430;83;21025;-71
2021/03/09 08:41:12;;;;;;;59.88;35.23;;;;;;;0.71;80.46;100243.69;1688828;83;21230;-71
2021/03/09 08:45:02;;;;;;;59.30;36.28;;;;;;;1.06;80.53;100235.53;1796476;78;22338;-69
2021/03/09 08:47:35;;;;;;;48.87;30.37;;;;;;;1.40;80.86;100234.25;1753441;80;21052;-70
2021/03/09 08:50:02;;;;;;;43.92;26.55;;;;;;;1.72;80.39;100241.02;1760271;80;21085;-70
2021/03/09 08:52:40;;;;;;;43.00;26.10;;;;;;;2.03;80.28;100240.48;1766641;79;21037;-70
2021/03/09 08:56:19;;;;;;;36.95;22.73;;;;;;;2.23;79.90;100224.92;1796851;78;22416;-69
2021/03/09 08:58:46;;;;;;;;;;;;;;;2.22;79.70;100233.53;1774918;79;21546;-71
2021/03/09 09:01:24;;;;;;;23.65;17.07;;;;;;;2.18;79.42;100212.05;1772497;79;21364;-72
2021/03/09 09:03:51;;;;;;;28.65;16.73;;;;;;;2.18;79.42;100212.05;1773280;79;21064;-70
2021/03/09 09:06:23;;;;;;;30.35;18.32;;;;;;;2.23;79.02;100226.22;1748703;80;21074;-70
2021/03/09 09:08:51;;;;;;;27.65;17.65;;;;;;;2.26;79.45;100226.19;1769330;80;21665;-70
2021/03/09 09:11:21;;;;;;;29.67;18.23;;;;;;;2.48;79.93;100217.06;1749044;80;21044;-70
2021/03/09 09:13:49;;;;;;;22.65;14.50;;;;;;;2.55;79.57;100225.16;1769477;79;21215;-70
2021/03/09 09:16:18;;;;;;;18.12;10.30;;;;;;;2.65;79.72;100225.53;1775158;79;21098;-70
2021/03/09 09:18:47;;;;;;;16.42;10.55;;;;;;;2.86;79.99;100225.38;1769861;80;21036;-69
2021/03/09 09:21:14;;;;;;;24.32;12.53;;;;;;;3.15;80.25;100226.86;1770799;80;21222;-70
2021/03/09 09:23:42;;;;;;;21.33;13.43;;;;;;;3.39;79.96;100224.91;1771807;80;22477;-70
2021/03/09 09:26:12;;;;;;;;;;;;;;;3.51;79.53;100233.84;1779047;80;22182;-70
2021/03/09 09:28:41;;;;;;;23.38;14.53;;;;;;;3.51;79.59;100232.55;1768523;80;20578;-69
2021/03/09 09:31:19;;;;;;;22.50;11.45;;;;;;;3.64;79.73;100227.68;1770992;80;20998;-70
2021/03/09 09:34:10;;;;;;;18.10;10.90;;;;;;;3.73;79.48;100224.98;1770221;80;20950;-71
2021/03/09 09:36:44;;;;;;;10.60;6.05;;;;;;;3.67;79.23;100223.77;1715209;81;21676;-68
2021/03/09 09:39:11;;;;;;;8.60;4.62;;;;;;;3.67;79.16;100223.77;1682909;83;22232;-70
2021/03/09 09:41:39;;;;;;;7.65;4.90;;;;;;;3.75;79.20;100223.25;1672712;84;28387;-71
2021/03/09 09:44:06;;;;;;;17.32;9.95;;;;;;;3.84;79.18;100214.53;1669525;83;25166;-73
2021/03/09 09:46:34;;;;;;;14.53;8.03;;;;;;;3.90;78.93;100218.77;1674811;83;21202;-70
2021/03/09 09:49:01;;;;;;;15.53;8.88;;;;;;;3.73;78.58;100219.82;1662011;84;21162;-72
2021/03/09 09:51:29;;;;;;;25.12;17.82;;;;;;;3.52;78.26;100227.79;1650234;84;21246;-72
2021/03/09 09:53:56;;;;;;;;;;;;;;;3.53;78.94;100225.65;1642094;84;21208;-73
2021/03/09 09:56:25;;;;;;;;;;;;;;;3.55;78.66;100222.59;1672967;84;20691;-73
2021/03/09 09:58:59;;;;;;;17.77;9.65;;;;;;;3.70;79.18;100217.28;1666973;84;20181;-73
2021/03/09 10:01:40;;;;;;;18.32;9.23;;;;;;;3.67;79.24;100217.72;1663455;84;22073;-73
2021/03/09 10:04:13;;;;;;;19.05;10.82;;;;;;;3.63;79.19;100219.49;1661292;84;21209;-72
2021/03/09 10:06:51;;;;;;;18.07;9.38;;;;;;;3.63;79.31;100223.37;1664177;84;21223;-73
2021/03/09 10:09:24;;;;;;;16.60;8.90;;;;;;;3.60;79.08;100222.11;1662440;85;21217;-71
2021/03/09 10:11:56;;;;;;;18.60;9.63;;;;;;;3.46;78.96;100220.11;1663860;84;21316;-72
2021/03/09 10:14:27;;;;;;;23.32;10.90;;;;;;;3.42;79.08;100215.84;1669626;84;21185;-72
2021/03/09 10:16:56;;;;;;;16.77;9.28;;;;;;;3.49;79.27;100214.47;1663901;84;22192;-72
2021/03/09 10:19:24;;;;;;;14.03;8.55;;;;;;;3.78;79.56;100210.70;1688436;83;21191;-72
2021/03/09 10:21:54;;;;;;;13.48;8.58;;;;;;;4.05;79.50;100217.28;1663713;84;21058;-72
2021/03/09 10:24:32;;;;;;;19.45;9.48;;;;;;;4.25;79.20;100213.98;1665545;85;21140;-73
2021/03/09 10:27:01;;;;;;;12.55;8.28;;;;;;;4.09;78.51;100215.09;1689340;83;21260;-72
2021/03/09 10:29:32;;;;;;;13.55;8.00;;;;;;;4.01;78.57;100216.91;1644067;85;21279;-73
2021/03/09 10:32:24;;;;;;;14.00;8.55;;;;;;;3.84;78.61;100216.23;1661721;84;21212;-70
2021/03/09 10:37:37;;;;;;;13.35;7.30;;;;;;;3.85;79.23;100207.64;1799031;78;22901;-72
2021/03/09 10:40:08;;;;;;;9.90;6.42;;;;;;;4.09;79.54;100202.16;1774123;79;20985;-72
2021/03/09 10:42:40;;;;;;;8.63;5.67;;;;;;;4.39;79.03;100207.33;1770682;80;21410;-72
2021/03/09 10:45:24;;;;;;;10.23;4.83;;;;;;;4.46;78.73;100199.06;1769448;80;21076;-72
2021/03/09 10:48:02;;;;;;;10.38;6.20;;;;;;;4.33;78.12;100193.65;1771185;80;21604;-71
2021/03/09 10:50:44;;;;;;;9.75;4.60;;;;;;;4.14;77.73;100192.59;1773244;80;20982;-71
2021/03/09 10:53:12;;;;;;;11.57;8.18;;;;;;;3.90;77.98;100195.52;1768335;79;21008;-72
2021/03/09 10:55:39;;;;;;;31.07;17.25;;;;;;;3.83;78.03;100196.45;1765144;80;21361;-71
2021/03/09 10:58:06;;;;;;;31.33;16.40;;;;;;;3.60;77.94;100187.25;1769146;80;21094;-70
2021/03/09 11:00:34;;;;;;;30.02;17.73;;;;;;;3.32;77.77;100187.55;1768032;80;21018;-71
2021/03/09 11:03:01;;;;;;;32.13;16.27;;;;;;;3.09;78.25;100195.95;1765425;80;20971;-70
2021/03/09 11:05:29;;;;;;;37.03;23.30;;;;;;;3.09;78.74;100194.67;1770441;79;21140;-70
2021/03/09 11:07:56;;;;;;;28.90;16.50;;;;;;;3.14;78.82;100194.20;1766085;80;21321;-70
2021/03/09 11:10:24;;;;;;;29.52;15.03;;;;;;;3.35;79.25;100189.23;1765916;80;21174;-70
2021/03/09 11:12:51;;;;;;;28.27;16.60;;;;;;;3.62;79.25;100179.06;1768549;80;27246;-71
2021/03/09 11:15:19;;;;;;;17.32;7.33;;;;;;;3.79;78.76;100184.88;1771636;80;21072;-71
2021/03/09 11:17:46;;;;;;;17.77;10.98;;;;;;;3.71;77.84;100177.65;1767060;79;21173;-71
2021/03/09 11:20:16;;;;;;;17.73;8.23;;;;;;;3.53;77.98;100174.01;1771525;80;21551;-70
2021/03/09 11:22:44;;;;;;;12.95;7.03;;;;;;;3.47;77.63;100175.34;1768861;80;21603;-71
2021/03/09 11:25:12;;;;;;;20.05;10.50;;;;;;;3.18;77.14;100170.50;1772281;80;20975;-71
2021/03/09 11:27:39;;;;;;;12.35;5.72;;;;;;;2.85;77.87;100173.36;1772314;80;21062;-71
2021/03/09 11:30:09;;;;;;;7.97;4.53;;;;;;;2.94;78.38;100162.55;1775488;79;21070;-71
2021/03/09 11:36:32;;;;;;;26.37;14.73;;;;;;;2.71;78.06;100173.91;1769417;80;21544;-71
2021/03/09 11:38:59;;;;;;;;;;;;;;;2.65;77.75;100172.67;1768711;80;20982;-71
2021/03/09 11:41:26;;;;;;;29.42;16.20;;;;;;;2.54;77.70;100164.17;1765829;79;20133;-71
2021/03/09 11:43:54;;;;;;;30.97;17.05;;;;;;;2.49;78.03;100159.48;1769315;80;20961;-71
2021/03/09 11:46:21;;;;;;;10.13;6.85;;;;;;;2.58;78.32;100156.85;1768207;80;21282;-71
2021/03/09 11:48:48;;;;;;;7.10;4.45;;;;;;;2.78;78.70;100153.66;1768770;80;24657;-71
2021/03/09 11:51:16;;;;;;;10.63;5.90;;;;;;;3.06;78.65;100151.69;1762120;80;20989;-71
2021/03/09 11:53:43;;;;;;;39.20;22.20;;;;;;;3.29;78.33;100141.13;1769741;79;20945;-71
2021/03/09 11:56:10;;;;;;;12.88;8.20;;;;;;;3.43;77.82;100143.99;1774827;80;20995;-71
2021/03/09 11:58:37;;;;;;;7.25;3.65;;;;;;;3.50;77.81;100136.58;1772478;79;22198;-71
2021/03/09 12:01:05;;;;;;;7.22;2.72;;;;;;;3.60;77.84;100135.61;1778034;79;20980;-71